createdAt,value
2022-11-08T00:08:53.664Z,75.42
2022-11-08T00:18:58.336Z,75.22
2022-11-08T00:29:01.365Z,74.88
2022-11-08T00:39:05.601Z,75.10
2022-11-08T00:49:08.801Z,75.04
2022-11-08T00:59:14.140Z,76.03
2022-11-08T01:09:17.604Z,78.07
2022-11-08T01:19:21.808Z,77.98
2022-11-08T01:29:24.696Z,78.36
2022-11-08T01:39:32.976Z,77.97
2022-11-08T01:49:41.188Z,78.19
2022-11-08T01:59:48.771Z,79.68
2022-11-08T02:09:51.807Z,80.48
2022-11-08T02:19:56.081Z,80.63
2022-11-08T02:30:00.403Z,80.76
2022-11-08T02:40:03.489Z,79.50
2022-11-08T02:50:08.729Z,80.26
2022-11-08T03:00:13.227Z,80.77
2022-11-08T03:10:18.640Z,81.27
2022-11-08T03:20:22.495Z,80.65
2022-11-08T03:30:26.800Z,80.71
2022-11-08T03:40:29.793Z,81.74
2022-11-08T03:50:34.178Z,81.05
2022-11-08T04:00:37.437Z,81.04
2022-11-08T04:10:41.725Z,81.75
2022-11-08T04:21:04.157Z,81.93
2022-11-08T04:31:09.986Z,81.37
2022-11-08T04:41:14.683Z,81.25
2022-11-08T04:51:21.057Z,81.47
2022-11-08T05:01:26.038Z,81.52
2022-11-08T05:11:31.941Z,81.50
2022-11-08T05:21:48.872Z,81.40
2022-11-08T05:31:53.429Z,81.82
2022-11-08T05:41:56.389Z,81.38
2022-11-08T05:52:00.776Z,81.45
2022-11-08T06:02:03.970Z,81.56
2022-11-08T06:12:09.302Z,79.82
2022-11-08T06:22:12.389Z,79.66
2022-11-08T06:32:16.991Z,78.96
2022-11-08T06:42:20.299Z,78.58
2022-11-08T06:52:24.485Z,77.54
2022-11-08T07:02:27.281Z,76.86
2022-11-08T07:12:32.443Z,76.46
2022-11-08T07:22:36.017Z,75.54
2022-11-08T07:32:40.159Z,75.26
2022-11-08T07:43:10.208Z,75.17
2022-11-08T07:53:08.385Z,74.53
2022-11-08T08:03:13.412Z,73.89
2022-11-08T08:13:18.344Z,73.39
2022-11-08T08:23:21.519Z,73.28
2022-11-08T08:33:28.745Z,72.86
2022-11-08T08:43:33.373Z,72.54
2022-11-08T08:53:37.625Z,71.70
2022-11-08T09:03:40.415Z,71.76
2022-11-08T09:24:05.562Z,72.29
2022-11-08T09:34:09.861Z,71.76
2022-11-08T09:44:22.743Z,71.75
2022-11-08T09:54:32.519Z,71.74
2022-11-08T10:04:38.081Z,72.14
2022-11-08T10:14:54.643Z,71.24
2022-11-08T10:25:02.555Z,71.34
2022-11-08T10:35:18.691Z,71.13
2022-11-08T10:45:21.489Z,70.71
2022-11-08T10:55:28.355Z,70.91
2022-11-08T11:05:34.896Z,67.74
2022-11-08T11:15:41.203Z,64.56
2022-11-08T11:25:52.213Z,63.17
2022-11-08T11:35:59.517Z,63.53
2022-11-08T11:46:10.826Z,65.38
2022-11-08T11:56:43.670Z,67.14
2022-11-08T12:06:53.305Z,68.61
2022-11-08T12:17:11.317Z,66.26
2022-11-08T12:27:28.126Z,63.35
2022-11-08T12:37:51.331Z,61.15
2022-11-08T12:47:58.598Z,61.37
2022-11-08T12:58:06.302Z,60.14
2022-11-08T13:08:14.169Z,60.17
2022-11-08T13:18:34.216Z,60.05
2022-11-08T13:28:45.897Z,58.78
2022-11-08T13:39:02.077Z,58.21
2022-11-08T13:49:14.497Z,58.66
2022-11-08T13:59:59.656Z,58.69
2022-11-08T14:10:13.063Z,58.14
2022-11-08T14:20:20.371Z,58.66
2022-11-08T14:30:24.895Z,58.23
2022-11-08T14:40:30.254Z,58.45
2022-11-08T14:50:35.812Z,58.32
2022-11-08T15:00:39.035Z,59.34
2022-11-08T15:10:55.088Z,59.54
2022-11-08T15:21:01.380Z,59.58
2022-11-08T15:31:28.124Z,58.93
2022-11-08T15:41:33.937Z,59.27
2022-11-08T15:51:38.732Z,59.33
2022-11-08T16:01:48.723Z,59.26
2022-11-08T16:11:53.089Z,58.82
2022-11-08T16:21:56.232Z,59.16
2022-11-08T16:32:00.639Z,59.38
2022-11-08T16:42:04.296Z,59.75
2022-11-08T16:52:10.178Z,59.83
2022-11-08T17:02:21.389Z,60.18
2022-11-08T17:12:25.733Z,60.26
2022-11-08T17:22:28.835Z,60.01
2022-11-08T17:32:35.268Z,60.46
2022-11-08T17:42:39.640Z,59.52
2022-11-08T17:52:43.757Z,60.02
2022-11-08T18:02:46.471Z,60.27
2022-11-08T18:12:50.583Z,60.38
2022-11-08T18:22:53.327Z,61.40
2022-11-08T18:32:57.546Z,61.68
2022-11-08T18:43:00.676Z,62.36
2022-11-08T18:53:07.131Z,62.61
2022-11-08T19:03:10.233Z,62.90
2022-11-08T19:13:15.108Z,62.88
2022-11-08T19:23:18.574Z,62.78
2022-11-08T19:33:25.912Z,62.39
2022-11-08T19:43:28.967Z,62.98
2022-11-08T19:53:33.949Z,62.81
2022-11-08T20:03:38.291Z,63.12
2022-11-08T20:13:43.975Z,63.37
2022-11-08T20:23:47.730Z,63.12
2022-11-08T20:33:53.824Z,63.79
2022-11-08T20:43:57.193Z,64.23
2022-11-08T20:54:02.366Z,64.23
2022-11-08T21:04:05.650Z,64.33
2022-11-08T21:14:09.876Z,64.29
2022-11-08T21:24:13.372Z,64.31
2022-11-08T21:34:17.808Z,65.01
2022-11-08T21:44:21.088Z,64.63
2022-11-08T21:54:25.517Z,65.15
2022-11-08T22:04:28.714Z,65.40
2022-11-08T22:14:32.851Z,66.29
2022-11-08T22:24:35.788Z,66.29
2022-11-08T22:34:40.526Z,66.90
2022-11-08T22:44:43.432Z,68.26
2022-11-08T22:54:47.868Z,68.62
2022-11-08T23:04:50.987Z,69.10
2022-11-08T23:15:13.142Z,69.47
2022-11-08T23:25:16.504Z,69.39
2022-11-08T23:35:22.084Z,69.84
2022-11-08T23:45:25.336Z,69.90
2022-11-08T23:55:29.745Z,69.80
